Weather at Campo di Volo Sedico

Public forecast

Using degrees Celsius for public forecast. Weather courtesy of forecast.io.

Closest aviation weather report (METAR) to Campo di Volo Sedico

Closest report is Aviano Air Base, 21.4 nm (39.7 km) E. Retrieved 2021/06/21 08:55 UTC (24 minutes ago):

LIPA 210855Z 13005KT 9999 FEW050 29/23 Q1009 RMK FEW VIS MIN 9999 WIND THR05 /////KT WIND THR23 /////KT A2982 BLU

Closest aviation forecast (TAF) to Campo di Volo Sedico

Forecast is more than 12 hours old.

Closest forecast is Aviano Air Base, 21.4 nm (39.7 km) E. Retrieved 2015/11/03 12:24 UTC (6 years ago):

TAF TAF LIPA 031100Z 0312/0324 VRB03KT CAVOK